Time;durP1;ratioP1;P1;durP2;ratioP2;P2;SDS_P1;SDS_P2;PMS_P1;PMS_P2;Temp;Humidity;BMP_temperature;BMP_pressure;BME280_temperature;BME280_humidity;BME280_pressure;Samples;Min_cycle;Max_cycle;Signal;HPM_P1;HPM_P2
2021/07/02 00:01:04;;;;;;;7.18;4.75;;;15.10;14.60;;;;;;5155469;27;20566;-73
2021/07/02 00:03:43;;;;;;;6.40;4.40;;;15.10;14.90;;;;;;5160977;27;20118;-74
2021/07/02 00:06:23;;;;;;;5.57;4.45;;;15.20;15.00;;;;;;5174661;27;20117;-74
2021/07/02 00:09:03;;;;;;;6.25;4.00;;;15.20;14.90;;;;;;5157225;27;20111;-74
2021/07/02 00:11:45;;;;;;;7.03;4.40;;;15.10;14.50;;;;;;5154613;27;20692;-74
2021/07/02 00:14:26;;;;;;;6.57;4.63;;;15.10;14.90;;;;;;5158257;27;20189;-74
2021/07/02 00:17:06;;;;;;;7.70;4.57;;;15.10;14.90;;;;;;5159790;27;20110;-73
2021/07/02 00:19:45;;;;;;;5.43;4.05;;;15.10;15.20;;;;;;5153937;27;20118;-73
2021/07/02 00:22:25;;;;;;;6.85;4.50;;;15.00;14.90;;;;;;5174119;27;20832;-74
2021/07/02 00:25:06;;;;;;;8.60;4.40;;;15.00;14.90;;;;;;5163441;27;20122;-75
2021/07/02 00:27:48;;;;;;;7.45;4.30;;;15.00;14.90;;;;;;5154834;27;20114;-73
2021/07/02 00:30:28;;;;;;;6.35;4.43;;;15.00;15.50;;;;;;5166900;27;20114;-74
2021/07/02 00:33:08;;;;;;;6.75;4.70;;;15.00;14.90;;;;;;5155091;27;20110;-73
2021/07/02 00:35:47;;;;;;;5.38;4.10;;;15.00;15.70;;;;;;5144570;27;20510;-74
2021/07/02 00:38:29;;;;;;;7.50;4.63;;;15.00;15.40;;;;;;5169492;27;20188;-74
2021/07/02 00:41:10;;;;;;;7.43;4.30;;;15.00;16.30;;;;;;5154588;27;20110;-74
2021/07/02 00:43:53;;;;;;;5.78;4.43;;;14.90;15.80;;;;;;5177162;27;20118;-75
2021/07/02 00:46:33;;;;;;;7.55;4.82;;;14.90;16.10;;;;;;5159455;27;20118;-76
2021/07/02 00:49:13;;;;;;;6.20;4.45;;;14.90;16.40;;;;;;5153644;27;20131;-74
2021/07/02 00:51:56;;;;;;;6.63;4.78;;;14.90;16.20;;;;;;5169736;27;20313;-75
2021/07/02 00:54:37;;;;;;;7.93;4.65;;;14.90;16.20;;;;;;5155706;27;20110;-75
2021/07/02 00:57:15;;;;;;;8.35;4.75;;;14.90;16.50;;;;;;5165378;27;20114;-75
2021/07/02 00:59:55;;;;;;;8.45;4.72;;;14.90;16.40;;;;;;5148908;27;20592;-73
2021/07/02 01:02:35;;;;;;;7.40;5.18;;;14.90;16.30;;;;;;5171119;27;20110;-74
2021/07/02 01:05:15;;;;;;;6.65;4.82;;;14.90;17.00;;;;;;5153862;27;20480;-74
2021/07/02 01:07:56;;;;;;;6.60;4.88;;;14.80;16.70;;;;;;5152951;27;20111;-75
2021/07/02 01:10:38;;;;;;;6.88;4.70;;;14.80;16.70;;;;;;5164899;27;20110;-73
2021/07/02 01:13:17;;;;;;;6.45;4.95;;;14.80;16.80;;;;;;5157777;27;20524;-74
2021/07/02 01:15:57;;;;;;;6.60;4.80;;;14.70;17.00;;;;;;5151781;27;20131;-75
2021/07/02 01:18:39;;;;;;;6.15;4.80;;;14.80;17.70;;;;;;5167359;27;20110;-74
2021/07/02 01:21:20;;;;;;;6.20;4.25;;;14.70;17.40;;;;;;5150616;27;20437;-75
2021/07/02 01:24:00;;;;;;;6.75;4.50;;;14.70;18.10;;;;;;5160555;27;20118;-76
2021/07/02 01:26:40;;;;;;;8.48;5.15;;;14.70;18.30;;;;;;5140635;27;20123;-75
2021/07/02 01:29:23;;;;;;;8.55;5.85;;;14.70;18.30;;;;;;5167047;27;20169;-75
2021/07/02 01:32:05;;;;;;;6.60;4.90;;;14.60;18.50;;;;;;5158206;27;20192;-75
2021/07/02 01:34:46;;;;;;;8.20;5.65;;;14.50;18.30;;;;;;5156079;27;20121;-74
2021/07/02 01:37:27;;;;;;;8.13;5.30;;;14.60;19.10;;;;;;5175609;27;20105;-74
2021/07/02 01:40:10;;;;;;;7.57;5.38;;;14.60;18.90;;;;;;5164075;27;20117;-74
2021/07/02 01:42:52;;;;;;;9.30;4.80;;;14.50;19.30;;;;;;5155141;27;20193;-74
2021/07/02 01:45:33;;;;;;;7.60;4.45;;;14.50;19.70;;;;;;5165566;27;20107;-74
2021/07/02 01:48:12;;;;;;;6.75;5.18;;;14.50;19.40;;;;;;5156369;27;20122;-75
2021/07/02 01:50:52;;;;;;;8.43;5.07;;;14.50;19.50;;;;;;5156035;27;20110;-74
2021/07/02 01:53:32;;;;;;;7.75;4.65;;;14.40;19.70;;;;;;5156055;27;20114;-75
2021/07/02 01:56:12;;;;;;;9.68;4.90;;;14.40;20.40;;;;;;5165160;27;20501;-74
2021/07/02 01:58:55;;;;;;;8.27;5.72;;;14.40;19.90;;;;;;5155294;27;20103;-75
2021/07/02 02:01:43;;;;;;;8.15;4.80;;;14.40;20.50;;;;;;5150722;27;20111;-74
2021/07/02 02:04:31;;;;;;;9.73;5.50;;;14.40;20.40;;;;;;5155955;27;20191;-74
2021/07/02 02:07:10;;;;;;;8.77;5.88;;;14.40;20.00;;;;;;5158660;27;20110;-75
2021/07/02 02:09:53;;;;;;;8.45;5.25;;;14.30;20.30;;;;;;5146604;27;20552;-75
2021/07/02 02:12:33;;;;;;;7.97;5.53;;;14.30;20.90;;;;;;5151765;27;20111;-74
2021/07/02 02:15:15;;;;;;;7.05;5.53;;;14.30;21.20;;;;;;5167465;27;20228;-74
2021/07/02 02:18:01;;;;;;;8.27;5.25;;;14.30;21.40;;;;;;5160957;27;20480;-75
2021/07/02 02:20:41;;;;;;;6.43;4.95;;;14.20;20.90;;;;;;5152997;27;20458;-74
2021/07/02 02:23:20;;;;;;;8.60;5.38;;;14.20;21.50;;;;;;5176868;27;20101;-73
2021/07/02 02:26:00;;;;;;;8.23;5.32;;;14.20;22.00;;;;;;5144738;27;20114;-75
2021/07/02 02:28:44;;;;;;;9.85;5.75;;;14.20;21.80;;;;;;5153695;27;20636;-75
2021/07/02 02:31:23;;;;;;;7.93;5.70;;;14.10;21.60;;;;;;5152616;27;20118;-75
2021/07/02 02:34:11;;;;;;;8.00;5.72;;;14.10;21.70;;;;;;5158282;27;20190;-74
2021/07/02 02:36:51;;;;;;;9.38;5.72;;;14.10;21.90;;;;;;5145587;27;20114;-74
2021/07/02 02:39:32;;;;;;;7.78;5.63;;;14.10;22.60;;;;;;5167846;27;20476;-74
2021/07/02 02:42:12;;;;;;;8.48;5.75;;;14.10;22.50;;;;;;5098394;27;20109;-74
2021/07/02 02:44:53;;;;;;;9.18;5.90;;;14.00;22.20;;;;;;5154951;27;20198;-74
2021/07/02 02:47:33;;;;;;;8.75;5.72;;;14.00;22.80;;;;;;5174538;27;20109;-75
2021/07/02 02:50:14;;;;;;;7.13;5.57;;;13.90;23.10;;;;;;5165942;27;20110;-75
2021/07/02 02:52:54;;;;;;;11.57;5.78;;;13.90;23.00;;;;;;5165384;27;20098;-74
2021/07/02 02:55:36;;;;;;;9.60;5.30;;;13.90;23.20;;;;;;5165803;27;20111;-74
2021/07/02 02:58:15;;;;;;;10.13;5.97;;;13.80;23.60;;;;;;5157133;27;20593;-75
2021/07/02 03:00:55;;;;;;;7.45;5.40;;;13.80;23.30;;;;;;5150973;27;20111;-74
2021/07/02 03:03:36;;;;;;;8.70;5.95;;;13.80;23.40;;;;;;5158674;27;20493;-74
2021/07/02 03:06:23;;;;;;;8.50;6.13;;;13.80;23.80;;;;;;5170460;27;20137;-74
2021/07/02 03:09:03;;;;;;;10.88;6.57;;;13.80;23.70;;;;;;5156838;27;20107;-74
2021/07/02 03:11:44;;;;;;;8.68;5.82;;;13.80;23.80;;;;;;5156001;27;20114;-75
2021/07/02 03:14:24;;;;;;;9.20;6.10;;;13.80;23.30;;;;;;5171025;27;20587;-74
2021/07/02 03:17:04;;;;;;;9.43;6.32;;;13.70;24.00;;;;;;5160256;27;20110;-74
2021/07/02 03:19:50;;;;;;;7.85;5.93;;;13.70;24.00;;;;;;5152154;27;20002;-75
2021/07/02 03:22:33;;;;;;;8.15;5.80;;;13.80;24.20;;;;;;5155903;27;20115;-74
2021/07/02 03:25:14;;;;;;;7.55;5.60;;;13.80;23.70;;;;;;5170357;27;20105;-74
2021/07/02 03:27:54;;;;;;;11.02;6.10;;;13.80;22.90;;;;;;5152342;27;20115;-74
2021/07/02 03:30:35;;;;;;;13.13;6.43;;;13.80;22.90;;;;;;5157615;27;20118;-74
2021/07/02 03:33:15;;;;;;;12.38;6.03;;;13.90;22.60;;;;;;5157137;27;20478;-75
2021/07/02 03:35:55;;;;;;;8.27;6.10;;;13.90;22.30;;;;;;5091580;27;20110;-74
2021/07/02 03:38:35;;;;;;;10.18;6.22;;;14.00;21.80;;;;;;5168867;27;20117;-74
2021/07/02 03:41:15;;;;;;;9.02;5.82;;;14.00;22.00;;;;;;5151789;27;20110;-74
2021/07/02 03:43:54;;;;;;;9.93;6.05;;;14.10;21.40;;;;;;5159935;27;20117;-74
2021/07/02 03:46:36;;;;;;;8.48;5.63;;;14.10;21.40;;;;;;5151731;27;20194;-74
2021/07/02 03:49:18;;;;;;;10.45;6.22;;;14.10;21.40;;;;;;5169940;27;20188;-74
2021/07/02 03:51:57;;;;;;;9.75;6.13;;;14.20;21.40;;;;;;5169558;27;20109;-75
2021/07/02 03:54:37;;;;;;;9.60;6.40;;;14.20;21.00;;;;;;5163881;27;20103;-74
2021/07/02 03:57:19;;;;;;;10.80;6.13;;;14.20;20.60;;;;;;5173135;27;20117;-74
2021/07/02 03:59:58;;;;;;;11.07;6.53;;;14.30;20.40;;;;;;5152984;27;20119;-74
2021/07/02 04:02:43;;;;;;;8.02;5.60;;;14.20;20.40;;;;;;5171631;27;20196;-73
2021/07/02 04:05:23;;;;;;;9.07;6.63;;;14.20;20.90;;;;;;5155777;27;20126;-74
2021/07/02 04:08:02;;;;;;;7.32;5.88;;;14.20;21.00;;;;;;5159414;27;20106;-74
2021/07/02 04:10:44;;;;;;;8.50;5.82;;;14.30;20.30;;;;;;5150320;27;20115;-73
2021/07/02 04:13:24;;;;;;;13.30;6.55;;;14.30;20.20;;;;;;5172713;27;20580;-74
2021/07/02 04:16:04;;;;;;;10.23;6.13;;;14.30;20.30;;;;;;5148186;27;20116;-73
2021/07/02 04:18:43;;;;;;;8.25;6.18;;;14.40;19.80;;;;;;5161099;27;20118;-73
2021/07/02 04:21:23;;;;;;;10.90;6.70;;;14.40;19.20;;;;;;5160296;27;20105;-74
2021/07/02 04:24:03;;;;;;;8.93;6.03;;;14.40;19.20;;;;;;5155659;27;20110;-74
2021/07/02 04:26:43;;;;;;;9.68;6.20;;;14.50;19.00;;;;;;5147155;27;20123;-73
2021/07/02 04:29:22;;;;;;;9.15;5.70;;;14.60;18.80;;;;;;5159270;27;20117;-73
2021/07/02 04:32:02;;;;;;;7.90;5.82;;;14.60;18.20;;;;;;5154324;27;20465;-74
2021/07/02 04:34:43;;;;;;;10.88;6.70;;;14.70;18.30;;;;;;5171538;27;20109;-73
2021/07/02 04:37:22;;;;;;;9.27;5.78;;;14.70;17.60;;;;;;5166013;27;20103;-73
2021/07/02 04:40:01;;;;;;;8.45;5.95;;;14.80;17.90;;;;;;5151653;27;20209;-72
2021/07/02 04:42:44;;;;;;;11.95;6.20;;;14.90;17.30;;;;;;5171314;27;20169;-73
2021/07/02 04:45:23;;;;;;;10.88;6.38;;;14.90;16.50;;;;;;5154243;27;20111;-73
2021/07/02 04:48:03;;;;;;;9.32;6.00;;;15.00;16.50;;;;;;5173188;27;20764;-73
2021/07/02 04:50:42;;;;;;;8.40;6.28;;;15.00;15.40;;;;;;5165102;27;20106;-73
2021/07/02 04:53:22;;;;;;;10.48;6.22;;;15.10;15.70;;;;;;5170627;27;20106;-73
2021/07/02 04:56:02;;;;;;;9.90;6.72;;;15.20;15.00;;;;;;5165051;27;20110;-73
2021/07/02 04:58:43;;;;;;;8.65;5.90;;;15.20;15.00;;;;;;5169592;27;20118;-73
2021/07/02 05:01:22;;;;;;;9.82;6.35;;;15.30;15.10;;;;;;5167528;27;20476;-73
2021/07/02 05:04:01;;;;;;;9.75;6.50;;;15.50;14.40;;;;;;5158041;27;20115;-74
2021/07/02 05:06:41;;;;;;;7.22;5.82;;;15.50;14.20;;;;;;5141176;27;20162;-74
2021/07/02 05:09:23;;;;;;;9.55;5.50;;;15.50;13.90;;;;;;5153952;27;20126;-72
2021/07/02 05:12:03;;;;;;;8.10;6.32;;;15.60;13.10;;;;;;5155411;27;20569;-73
2021/07/02 05:14:42;;;;;;;8.80;6.00;;;15.60;13.50;;;;;;5153974;27;20114;-73
2021/07/02 05:17:22;;;;;;;11.82;6.20;;;15.70;13.00;;;;;;5155135;27;20465;-73
2021/07/02 05:20:05;;;;;;;12.40;6.47;;;15.60;13.00;;;;;;5153832;27;20206;-74
2021/07/02 05:22:45;;;;;;;10.45;6.50;;;15.70;12.50;;;;;;5160184;27;20109;-73
2021/07/02 05:25:27;;;;;;;8.38;6.00;;;15.90;11.80;;;;;;5156875;27;20197;-74
2021/07/02 05:28:06;;;;;;;10.98;5.55;;;16.00;11.90;;;;;;5161816;27;20105;-74
2021/07/02 05:30:46;;;;;;;7.10;6.05;;;16.10;10.30;;;;;;5157925;27;20113;-72
2021/07/02 05:33:28;;;;;;;10.43;6.53;;;16.10;10.90;;;;;;5158688;27;20111;-73
2021/07/02 05:36:07;;;;;;;8.85;5.95;;;16.20;10.50;;;;;;5153321;27;20111;-72
2021/07/02 05:38:47;;;;;;;10.50;5.93;;;16.30;10.90;;;;;;5167970;27;20113;-73
2021/07/02 05:41:27;;;;;;;8.40;6.30;;;16.20;9.40;;;;;;5151223;27;20115;-74
2021/07/02 05:44:06;;;;;;;11.07;6.45;;;16.20;9.40;;;;;;5154654;27;20161;-74
2021/07/02 05:46:48;;;;;;;8.65;6.18;;;16.30;8.90;;;;;;5139219;27;20126;-73
2021/07/02 05:49:28;;;;;;;9.07;6.20;;;16.30;8.80;;;;;;5165724;27;20476;-74
2021/07/02 05:52:08;;;;;;;11.60;6.15;;;16.30;8.40;;;;;;5154601;27;20110;-75
2021/07/02 05:54:48;;;;;;;9.18;6.20;;;16.50;8.50;;;;;;5156419;27;20102;-73
2021/07/02 05:57:29;;;;;;;10.48;6.20;;;16.50;8.50;;;;;;5163392;27;20182;-74
2021/07/02 06:00:10;;;;;;;15.73;6.00;;;16.60;7.30;;;;;;5165855;27;20771;-74
2021/07/02 06:02:50;;;;;;;11.55;5.88;;;16.70;7.80;;;;;;5156677;27;20123;-73
2021/07/02 06:05:30;;;;;;;10.55;6.68;;;16.70;7.10;;;;;;5153145;27;20111;-74
2021/07/02 06:08:11;;;;;;;8.63;5.95;;;16.40;7.90;;;;;;5180225;27;20200;-74
2021/07/02 06:10:52;;;;;;;11.07;6.40;;;16.50;8.50;;;;;;5148503;27;20110;-73
2021/07/02 06:13:31;;;;;;;10.25;6.57;;;16.70;6.80;;;;;;5169759;27;20114;-75
2021/07/02 06:16:10;;;;;;;8.80;6.38;;;16.90;6.00;;;;;;5172107;27;20114;-74
2021/07/02 06:18:50;;;;;;;12.65;6.53;;;16.80;6.20;;;;;;5153541;27;20114;-73
2021/07/02 06:21:32;;;;;;;12.48;7.18;;;17.30;4.50;;;;;;5169903;27;20101;-74
2021/07/02 06:24:13;;;;;;;7.82;5.82;;;17.70;3.30;;;;;;5170542;27;20118;-74
2021/07/02 06:26:55;;;;;;;13.73;6.18;;;18.00;1.10;;;;;;5156655;27;20194;-75
2021/07/02 06:29:36;;;;;;;10.85;5.97;;;18.60;1.00;;;;;;5167208;27;20524;-74
2021/07/02 06:32:16;;;;;;;10.70;5.80;;;18.70;1.00;;;;;;5127963;27;20123;-72
2021/07/02 06:34:55;;;;;;;13.18;6.25;;;19.20;1.00;;;;;;5156754;27;20114;-75
2021/07/02 06:37:35;;;;;;;13.05;6.22;;;18.80;1.00;;;;;;5153202;27;20119;-75
2021/07/02 06:40:16;;;;;;;8.57;5.70;;;18.80;1.00;;;;;;5154602;27;20123;-75
2021/07/02 06:42:55;;;;;;;8.57;5.68;;;18.40;1.00;;;;;;5154433;27;20741;-73
2021/07/02 06:45:35;;;;;;;8.07;5.63;;;19.60;1.00;;;;;;5148117;27;20116;-73
2021/07/02 06:48:15;;;;;;;12.35;5.72;;;19.30;1.00;;;;;;5159148;27;20106;-74
2021/07/02 06:50:57;;;;;;;8.38;5.70;;;19.10;1.00;;;;;;5165480;27;20110;-74
2021/07/02 06:53:36;;;;;;;7.70;5.60;;;19.20;1.00;;;;;;5170460;27;20576;-72
2021/07/02 06:56:15;;;;;;;5.75;4.43;;;19.50;1.00;;;;;;5151543;27;20115;-73
2021/07/02 06:58:56;;;;;;;6.28;5.10;;;19.00;1.00;;;;;;5160023;27;20481;-72
2021/07/02 07:01:35;;;;;;;5.88;4.72;;;19.10;1.00;;;;;;5165043;27;20102;-73
2021/07/02 07:04:15;;;;;;;8.75;5.40;;;19.00;1.00;;;;;;5156879;27;20110;-74
2021/07/02 07:06:57;;;;;;;12.88;5.38;;;19.00;1.00;;;;;;5155228;27;20119;-72
2021/07/02 07:09:37;;;;;;;7.57;5.05;;;19.00;1.00;;;;;;5165249;27;20577;-74
2021/07/02 07:12:16;;;;;;;7.43;4.68;;;18.70;1.00;;;;;;5171563;27;20122;-75
2021/07/02 07:14:56;;;;;;;9.00;5.53;;;18.30;1.00;;;;;;5148084;27;20484;-74
2021/07/02 07:17:36;;;;;;;5.63;4.95;;;18.20;1.00;;;;;;5156084;27;20103;-74
2021/07/02 07:20:15;;;;;;;7.65;5.10;;;18.50;1.00;;;;;;5089476;27;20129;-73
2021/07/02 07:22:55;;;;;;;7.00;4.88;;;18.40;1.00;;;;;;5090676;27;20128;-73
2021/07/02 07:25:35;;;;;;;6.63;4.90;;;18.60;1.00;;;;;;5151790;27;20120;-74
2021/07/02 07:28:16;;;;;;;8.20;4.28;;;18.40;1.00;;;;;;5175871;27;20558;-74
2021/07/02 07:30:55;;;;;;;6.65;4.03;;;18.90;1.00;;;;;;5146605;27;20102;-73
2021/07/02 07:33:40;;;;;;;7.38;4.72;;;19.00;1.00;;;;;;5154059;27;20173;-74
2021/07/02 07:36:21;;;;;;;10.18;5.07;;;19.40;1.00;;;;;;5148173;27;20119;-74
2021/07/02 07:39:06;;;;;;;6.80;4.47;;;19.30;1.00;;;;;;5169412;27;20026;-73
2021/07/02 07:41:47;;;;;;;8.30;4.88;;;19.40;1.00;;;;;;5170096;27;20180;-75
2021/07/02 07:44:28;;;;;;;6.03;4.85;;;18.80;1.00;;;;;;5157724;27;20614;-73
2021/07/02 07:47:08;;;;;;;8.70;5.25;;;19.30;1.00;;;;;;5135648;27;20119;-73
2021/07/02 07:49:48;;;;;;;8.95;5.10;;;19.80;1.00;;;;;;5089315;27;20109;-73
2021/07/02 07:52:37;;;;;;;7.47;4.70;;;20.20;1.00;;;;;;5150154;27;20226;-73
2021/07/02 07:55:17;;;;;;;6.18;4.60;;;20.30;1.00;;;;;;5153003;27;20127;-75
2021/07/02 07:57:57;;;;;;;6.10;4.63;;;20.70;1.00;;;;;;5164324;27;20117;-73
2021/07/02 08:00:36;;;;;;;5.93;4.45;;;19.50;1.00;;;;;;5168921;27;20146;-74
2021/07/02 08:03:16;;;;;;;7.70;4.60;;;20.50;1.00;;;;;;5169338;27;20106;-74
2021/07/02 08:05:56;;;;;;;6.22;4.88;;;19.60;1.00;;;;;;5150232;27;20123;-74
2021/07/02 08:08:36;;;;;;;8.88;4.35;;;19.30;1.00;;;;;;5155754;27;20846;-74
2021/07/02 08:11:16;;;;;;;6.30;4.43;;;20.20;1.00;;;;;;5160525;27;20123;-75
2021/07/02 08:13:55;;;;;;;6.25;4.50;;;20.10;1.00;;;;;;5152445;27;20107;-75
2021/07/02 08:16:36;;;;;;;6.85;4.95;;;19.60;1.00;;;;;;5160323;27;20122;-73
2021/07/02 08:19:15;;;;;;;6.78;4.70;;;19.10;1.00;;;;;;5156653;27;20126;-74
2021/07/02 08:21:58;;;;;;;9.40;5.20;;;19.20;1.00;;;;;;5157703;27;20765;-73
2021/07/02 08:24:40;;;;;;;8.18;5.05;;;20.10;1.00;;;;;;5154990;27;20173;-75
2021/07/02 08:27:21;;;;;;;6.78;4.60;;;20.40;1.00;;;;;;5155628;27;20278;-73
2021/07/02 08:30:01;;;;;;;6.65;5.03;;;20.10;1.00;;;;;;5149839;27;20119;-74
2021/07/02 08:32:42;;;;;;;7.63;5.15;;;20.70;1.00;;;;;;5161342;27;20208;-74
2021/07/02 08:35:23;;;;;;;6.28;4.85;;;20.30;1.00;;;;;;5150872;27;20112;-75
2021/07/02 08:38:06;;;;;;;7.55;5.28;;;20.00;1.00;;;;;;5153600;27;20115;-75
2021/07/02 08:40:46;;;;;;;6.10;4.68;;;20.40;1.00;;;;;;5162905;27;20118;-74
2021/07/02 08:43:26;;;;;;;6.97;5.35;;;20.70;1.00;;;;;;5168509;27;20114;-74
2021/07/02 08:46:12;;;;;;;6.68;4.97;;;19.80;1.00;;;;;;5125515;27;20124;-74
2021/07/02 08:48:53;;;;;;;6.60;4.97;;;20.30;1.00;;;;;;5156104;27;20482;-74
2021/07/02 08:51:34;;;;;;;9.55;5.13;;;20.70;1.00;;;;;;5155283;27;20125;-74
2021/07/02 08:54:16;;;;;;;7.50;4.57;;;20.90;1.00;;;;;;5168360;27;20129;-74
2021/07/02 08:56:58;;;;;;;17.15;9.55;;;21.20;1.00;;;;;;5136407;27;20465;-73
2021/07/02 08:59:38;;;;;;;6.05;4.93;;;20.20;1.00;;;;;;5160373;27;20119;-73
2021/07/02 09:02:29;;;;;;;7.78;4.80;;;21.00;1.00;;;;;;5155221;27;20114;-73
2021/07/02 09:05:32;;;;;;;7.60;5.22;;;19.40;1.00;;;;;;5157269;27;20127;-74
2021/07/02 09:08:17;;;;;;;7.70;5.25;;;20.10;1.00;;;;;;5162893;27;20192;-75
2021/07/02 09:10:57;;;;;;;6.28;5.00;;;20.30;1.00;;;;;;5165311;27;20101;-74
2021/07/02 09:13:42;;;;;;;6.68;5.00;;;19.80;1.00;;;;;;5162883;27;20106;-74
2021/07/02 09:16:24;;;;;;;6.20;5.00;;;20.90;1.00;;;;;;5146365;27;20111;-75
2021/07/02 09:19:19;;;;;;;5.50;4.50;;;21.50;1.00;;;;;;5149902;27;20498;-74
2021/07/02 09:22:15;;;;;;;9.57;4.65;;;21.80;1.00;;;;;;5170100;27;20113;-74
2021/07/02 09:24:55;;;;;;;6.20;4.65;;;21.80;1.00;;;;;;5153696;27;20107;-75
2021/07/02 09:27:36;;;;;;;5.85;4.50;;;20.40;1.00;;;;;;5170585;27;20112;-75
2021/07/02 09:30:19;;;;;;;7.40;4.70;;;21.10;1.00;;;;;;5089605;27;20475;-75
2021/07/02 09:33:10;;;;;;;6.00;5.18;;;20.00;1.00;;;;;;5158527;27;20473;-75
2021/07/02 09:35:54;;;;;;;8.40;5.30;;;20.40;1.00;;;;;;5158239;27;20189;-75
2021/07/02 09:38:35;;;;;;;7.40;4.53;;;21.00;1.00;;;;;;5159998;27;20649;-74
2021/07/02 09:41:16;;;;;;;7.80;5.28;;;20.30;1.00;;;;;;5153943;27;20198;-74
2021/07/02 09:44:10;;;;;;;8.48;5.28;;;20.00;1.00;;;;;;5158886;27;20119;-74
2021/07/02 09:46:52;;;;;;;5.57;4.88;;;20.60;1.00;;;;;;5151786;27;20414;-74
2021/07/02 09:49:40;;;;;;;6.28;5.13;;;21.10;1.00;;;;;;5135380;27;20180;-74
2021/07/02 09:52:28;;;;;;;7.65;4.85;;;21.30;1.00;;;;;;5139578;27;20058;-75
2021/07/02 09:55:19;;;;;;;6.30;5.20;;;21.60;1.00;;;;;;5120183;27;20359;-75
2021/07/02 09:58:09;;;;;;;5.65;4.43;;;20.50;1.00;;;;;;5137950;27;20215;-75
2021/07/02 10:00:59;;;;;;;5.18;3.95;;;20.80;1.00;;;;;;5124795;27;20493;-75
2021/07/02 10:03:49;;;;;;;6.80;4.15;;;20.90;1.00;;;;;;5137320;27;20202;-76
2021/07/02 10:06:37;;;;;;;9.80;4.78;;;20.70;1.00;;;;;;5136301;27;20072;-76
2021/07/02 10:09:26;;;;;;;5.70;4.53;;;21.90;1.00;;;;;;5132541;27;20046;-75
2021/07/02 10:12:14;;;;;;;8.23;4.03;;;21.70;1.00;;;;;;5136048;27;20156;-76
2021/07/02 10:15:04;;;;;;;5.88;4.80;;;20.80;1.00;;;;;;5132101;27;20542;-75
2021/07/02 10:17:55;;;;;;;6.55;4.82;;;21.40;1.00;;;;;;5138496;27;20045;-77
2021/07/02 10:20:46;;;;;;;6.05;5.00;;;20.80;1.00;;;;;;5126779;27;20143;-75
2021/07/02 10:23:36;;;;;;;6.65;5.00;;;21.40;1.00;;;;;;5133082;27;20567;-76
2021/07/02 10:26:28;;;;;;;9.50;5.57;;;22.20;1.00;;;;;;5132531;27;20410;-75
2021/07/02 10:29:17;;;;;;;5.70;4.80;;;21.00;1.00;;;;;;5133507;27;20376;-77
2021/07/02 10:32:07;;;;;;;7.90;4.70;;;21.00;1.00;;;;;;5137013;27;20046;-76
2021/07/02 10:34:55;;;;;;;6.50;4.63;;;20.80;1.00;;;;;;5134908;27;20047;-76
2021/07/02 10:37:49;;;;;;;5.28;4.43;;;20.20;1.00;;;;;;5137731;27;20409;-76
2021/07/02 10:40:40;;;;;;;6.45;4.50;;;21.00;1.00;;;;;;5128768;27;20073;-75
2021/07/02 10:43:28;;;;;;;6.95;4.40;;;20.90;1.00;;;;;;5132367;27;20207;-76
2021/07/02 10:46:18;;;;;;;6.93;4.13;;;21.50;1.00;;;;;;5136060;27;20039;-77
2021/07/02 10:49:09;;;;;;;5.93;4.30;;;21.30;1.00;;;;;;5133416;27;20063;-75
2021/07/02 10:51:59;;;;;;;5.45;4.85;;;20.70;1.00;;;;;;5120267;27;20467;-75
2021/07/02 10:54:50;;;;;;;7.10;4.38;;;21.20;1.00;;;;;;5134962;27;20047;-75
2021/07/02 10:57:52;;;;;;;6.18;4.00;;;21.30;1.00;;;;;;5125883;27;20037;-76
2021/07/02 11:01:09;;;;;;;8.85;5.00;;;21.30;1.00;;;;;;5116447;27;20067;-76
2021/07/02 11:04:32;;;;;;;6.63;4.40;;;21.10;1.00;;;;;;5114097;27;20075;-77
2021/07/02 11:07:42;;;;;;;6.07;4.28;;;21.60;1.00;;;;;;5098475;27;20039;-74
2021/07/02 11:10:55;;;;;;;5.65;4.00;;;21.70;1.00;;;;;;5098434;27;21061;-75
2021/07/02 11:14:06;;;;;;;5.40;4.43;;;21.60;1.00;;;;;;5107168;27;20530;-75
2021/07/02 11:17:20;;;;;;;6.72;4.38;;;22.00;1.00;;;;;;5107160;27;20051;-75
2021/07/02 11:20:31;;;;;;;5.72;3.92;;;21.20;1.00;;;;;;5110476;27;20059;-74
2021/07/02 11:23:24;;;;;;;7.10;4.22;;;21.70;1.00;;;;;;5119728;27;20043;-76
2021/07/02 11:26:41;;;;;;;8.18;4.38;;;21.90;1.00;;;;;;5122407;27;20054;-76
2021/07/02 11:29:37;;;;;;;7.28;4.63;;;21.00;1.00;;;;;;5112164;27;20120;-75
2021/07/02 11:32:32;;;;;;;6.80;5.13;;;21.60;1.00;;;;;;5124454;27;20084;-75
2021/07/02 11:35:22;;;;;;;5.75;4.35;;;22.60;1.00;;;;;;5121266;27;20431;-76
2021/07/02 11:38:13;;;;;;;7.22;5.00;;;21.50;1.00;;;;;;5123734;27;20415;-77
2021/07/02 11:41:04;;;;;;;7.40;4.78;;;21.60;1.00;;;;;;5112272;27;20051;-76
2021/07/02 11:43:54;;;;;;;5.45;4.55;;;21.90;1.00;;;;;;5122115;27;20061;-76
2021/07/02 11:46:43;;;;;;;7.22;5.20;;;21.10;1.00;;;;;;5117122;27;20168;-76
2021/07/02 11:49:31;;;;;;;6.78;4.60;;;21.80;1.00;;;;;;5114296;27;20447;-77
2021/07/02 11:52:20;;;;;;;6.50;4.40;;;21.70;1.00;;;;;;5120167;27;20047;-77
2021/07/02 11:55:09;;;;;;;6.15;4.45;;;21.60;1.00;;;;;;5119579;27;20047;-78
2021/07/02 11:58:16;;;;;;;7.45;5.05;;;22.50;1.00;;;;;;5120480;27;20043;-77
2021/07/02 12:01:09;;;;;;;5.78;4.57;;;23.00;1.00;;;;;;5114909;27;20054;-74
2021/07/02 12:04:01;;;;;;;6.43;4.55;;;22.30;1.00;;;;;;5117193;27;20466;-73
2021/07/02 12:06:51;;;;;;;6.50;5.32;;;21.90;1.00;;;;;;5123214;27;20043;-72
2021/07/02 12:09:41;;;;;;;6.88;4.78;;;22.10;1.00;;;;;;5111059;27;20047;-73
2021/07/02 12:12:30;;;;;;;8.52;4.72;;;21.90;1.00;;;;;;5120693;27;20070;-73
2021/07/02 12:15:27;;;;;;;8.13;5.05;;;22.30;1.00;;;;;;5105598;27;20054;-72
2021/07/02 12:18:26;;;;;;;7.03;4.82;;;22.30;1.00;;;;;;5121894;27;20043;-71
2021/07/02 12:21:14;;;;;;;5.68;4.05;;;21.70;1.00;;;;;;5109675;27;20055;-72
2021/07/02 12:24:05;;;;;;;5.78;4.53;;;21.70;1.00;;;;;;5120945;27;20046;-71
2021/07/02 12:26:55;;;;;;;6.30;4.93;;;21.80;1.00;;;;;;5118485;27;20535;-72
2021/07/02 12:29:46;;;;;;;6.45;4.43;;;22.10;1.00;;;;;;5096676;27;20059;-72
2021/07/02 12:32:37;;;;;;;5.05;4.28;;;22.30;1.00;;;;;;5121677;27;20175;-71
2021/07/02 12:35:27;;;;;;;5.28;4.25;;;22.20;1.00;;;;;;5120133;27;20569;-72
2021/07/02 12:38:17;;;;;;;9.15;4.82;;;22.30;1.00;;;;;;5121530;27;20040;-72
2021/07/02 12:41:06;;;;;;;7.72;4.80;;;22.70;1.00;;;;;;5117616;27;20047;-71
2021/07/02 12:43:54;;;;;;;7.07;5.07;;;22.30;1.00;;;;;;5117267;27;20126;-71
2021/07/02 12:46:43;;;;;;;6.35;4.28;;;21.40;1.00;;;;;;5105428;27;20240;-73
2021/07/02 12:49:42;;;;;;;6.55;4.88;;;22.10;1.00;;;;;;5113800;27;20050;-72
2021/07/02 12:55:47;;;;;;;5.10;4.13;;;22.30;1.00;;;;;;5118573;27;20156;-71
2021/07/02 12:58:36;;;;;;;4.80;4.25;;;22.00;1.00;;;;;;5118928;27;20157;-72
2021/07/02 13:01:26;;;;;;;6.70;4.80;;;21.80;1.00;;;;;;5116865;27;20047;-72
2021/07/02 13:04:18;;;;;;;7.35;4.63;;;22.10;1.00;;;;;;5115902;27;20062;-73
2021/07/02 13:07:08;;;;;;;5.82;4.72;;;22.40;1.00;;;;;;5120669;27;20040;-72
2021/07/02 13:10:09;;;;;;;7.00;4.85;;;22.70;1.00;;;;;;5109401;27;20500;-71
2021/07/02 13:13:09;;;;;;;7.47;4.53;;;22.80;1.00;;;;;;5119357;27;20498;-71
2021/07/02 13:16:03;;;;;;;6.35;4.50;;;23.50;1.00;;;;;;5117265;27;20058;-71
2021/07/02 13:18:54;;;;;;;6.43;4.45;;;22.80;1.00;;;;;;5118702;27;20062;-71
2021/07/02 13:21:43;;;;;;;7.70;4.80;;;22.70;1.00;;;;;;5115274;27;20043;-71
2021/07/02 13:24:34;;;;;;;6.47;4.50;;;23.00;1.00;;;;;;5115475;27;20043;-72
2021/07/02 13:27:24;;;;;;;5.90;4.30;;;23.20;1.00;;;;;;5118869;27;20564;-71
2021/07/02 13:30:13;;;;;;;5.80;4.25;;;22.30;1.00;;;;;;5113575;27;20047;-72
2021/07/02 13:33:07;;;;;;;5.93;4.75;;;22.20;1.00;;;;;;5120731;27;20826;-71
2021/07/02 13:36:12;;;;;;;5.78;4.85;;;22.40;1.00;;;;;;5121189;27;20055;-71
2021/07/02 13:39:01;;;;;;;4.72;4.20;;;22.40;1.00;;;;;;5121631;27;20561;-71
2021/07/02 13:41:58;;;;;;;7.07;4.95;;;22.90;1.00;;;;;;5117437;27;20058;-71
2021/07/02 13:44:57;;;;;;;6.35;4.68;;;22.60;1.00;;;;;;5114816;28;20078;-72
2021/07/02 13:47:45;;;;;;;5.97;5.00;;;22.30;1.00;;;;;;5120156;28;20040;-72
2021/07/02 13:50:34;;;;;;;6.40;5.03;;;22.10;1.00;;;;;;5112089;28;20039;-72
2021/07/02 13:53:25;;;;;;;5.75;4.65;;;22.50;1.00;;;;;;5119790;27;20414;-72
2021/07/02 13:56:13;;;;;;;7.78;5.28;;;23.20;1.00;;;;;;5119799;28;20123;-72
2021/07/02 13:59:01;;;;;;;5.43;4.68;;;22.80;1.00;;;;;;5117393;27;20071;-71
2021/07/02 14:01:56;;;;;;;6.22;5.00;;;22.90;1.00;;;;;;5116919;27;20066;-71
2021/07/02 14:04:45;;;;;;;5.95;4.65;;;22.40;1.00;;;;;;5122122;28;20051;-71
2021/07/02 14:07:33;;;;;;;5.72;5.00;;;22.20;1.00;;;;;;5102047;28;20591;-70
2021/07/02 14:10:22;;;;;;;5.30;4.50;;;22.10;1.00;;;;;;5104320;28;20178;-72
2021/07/02 14:13:10;;;;;;;6.50;5.18;;;23.00;1.00;;;;;;5115074;27;20036;-71
2021/07/02 14:15:59;;;;;;;7.32;4.90;;;23.40;1.00;;;;;;5114040;27;20084;-70
2021/07/02 14:18:48;;;;;;;6.60;4.43;;;23.20;1.00;;;;;;5115808;27;20130;-72
2021/07/02 14:21:39;;;;;;;5.32;4.65;;;23.40;1.00;;;;;;5116734;28;20070;-71
2021/07/02 14:24:28;;;;;;;5.78;4.45;;;23.80;1.00;;;;;;5115449;27;20093;-72